Time;durP1;ratioP1;P1;durP2;ratioP2;P2;SDS_P1;SDS_P2;PMS_P1;PMS_P2;Temp;Humidity;BMP_temperature;BMP_pressure;BME280_temperature;BME280_humidity;BME280_pressure;Samples;Min_cycle;Max_cycle;Signal;HPM_P1;HPM_P2
2021/09/16 00:08:51;;;;;;;7.33;3.27;;;16.10;99.90;;;;;;20764215;28;20077;-79
2021/09/16 00:18:52;;;;;;;6.73;3.40;;;15.90;99.90;;;;;;20762308;28;20030;-79
2021/09/16 00:28:53;;;;;;;10.47;2.73;;;15.90;99.90;;;;;;20763374;28;20057;-79
2021/09/16 00:38:54;;;;;;;3.97;2.60;;;16.10;99.90;;;;;;20765589;28;20034;-79
2021/09/16 00:48:55;;;;;;;;;;;16.10;99.90;;;;;;20772385;28;20030;-78
2021/09/16 00:58:58;;;;;;;5.33;2.77;;;16.10;99.90;;;;;;20781157;28;19972;-79
2021/09/16 01:08:59;;;;;;;9.02;2.50;;;16.10;99.90;;;;;;20783817;28;20288;-79
2021/09/16 01:19:00;;;;;;;11.23;2.70;;;16.10;99.90;;;;;;20786203;28;20439;-79
2021/09/16 01:29:00;;;;;;;9.97;3.30;;;16.20;99.90;;;;;;20778295;28;20029;-79
2021/09/16 01:39:03;;;;;;;5.00;2.40;;;16.20;99.90;;;;;;20779497;28;20109;-79
2021/09/16 01:49:05;;;;;;;7.40;3.13;;;16.10;99.90;;;;;;20783132;28;20098;-79
2021/09/16 01:59:06;;;;;;;12.95;4.53;;;15.90;99.90;;;;;;20776881;28;20445;-78
2021/09/16 02:09:07;;;;;;;24.97;4.00;;;15.90;99.90;;;;;;20765358;28;20042;-79
2021/09/16 02:19:08;;;;;;;7.27;3.67;;;16.10;99.90;;;;;;20761410;28;20057;-79
2021/09/16 02:29:09;;;;;;;5.70;3.03;;;16.10;99.90;;;;;;20768181;28;20056;-79
2021/09/16 02:39:09;;;;;;;7.40;4.10;;;16.20;99.90;;;;;;20757003;28;20034;-78
2021/09/16 02:49:10;;;;;;;9.60;4.57;;;16.10;99.90;;;;;;20773692;28;20046;-78
2021/09/16 02:59:11;;;;;;;9.43;4.00;;;16.10;99.90;;;;;;20789292;28;20034;-78
2021/09/16 03:09:12;;;;;;;9.33;4.20;;;16.20;99.90;;;;;;20782233;28;20021;-78
2021/09/16 03:19:13;;;;;;;11.80;4.97;;;16.20;99.90;;;;;;20781045;28;20169;-79
2021/09/16 03:29:14;;;;;;;14.33;4.33;;;16.30;99.90;;;;;;20788482;28;20034;-78
2021/09/16 03:39:15;;;;;;;20.47;7.00;;;16.30;99.90;;;;;;20790514;28;20260;-79
2021/09/16 03:49:15;;;;;;;22.10;7.77;;;16.30;99.90;;;;;;20832857;28;20033;-78
2021/09/16 03:59:16;;;;;;;26.47;10.40;;;16.30;99.90;;;;;;20783991;28;20037;-78
2021/09/16 04:09:17;;;;;;;28.00;11.50;;;16.30;99.90;;;;;;20794949;28;20539;-79
2021/09/16 04:19:18;;;;;;;18.17;10.20;;;16.30;99.90;;;;;;20764950;28;20026;-79
2021/09/16 04:29:19;;;;;;;30.50;13.20;;;16.40;99.90;;;;;;20763733;28;20030;-79
2021/09/16 04:39:20;;;;;;;27.33;13.83;;;16.40;99.90;;;;;;20764211;28;20041;-79
2021/09/16 04:49:21;;;;;;;21.53;12.37;;;16.50;99.90;;;;;;20762283;28;20033;-78
2021/09/16 04:59:21;;;;;;;32.17;13.07;;;16.50;99.90;;;;;;20770826;28;20142;-77
2021/09/16 05:09:22;;;;;;;43.20;17.50;;;16.40;99.90;;;;;;20784678;28;20031;-78
2021/09/16 05:19:23;;;;;;;34.40;11.53;;;16.50;99.90;;;;;;20782430;28;20026;-77
2021/09/16 05:29:24;;;;;;;15.87;8.23;;;16.50;99.90;;;;;;20805531;28;20034;-77
2021/09/16 05:39:25;;;;;;;12.90;6.63;;;16.50;99.90;;;;;;20792517;28;20057;-77
2021/09/16 05:49:25;;;;;;;15.30;6.30;;;16.50;99.90;;;;;;20832405;28;20037;-79
2021/09/16 05:59:26;;;;;;;9.87;5.10;;;16.50;99.90;;;;;;20851481;28;20032;-77
2021/09/16 06:09:27;;;;;;;9.13;5.67;;;16.60;99.90;;;;;;20824906;28;20108;-80
2021/09/16 06:19:28;;;;;;;10.37;5.70;;;16.70;99.90;;;;;;20834565;28;20033;-78
2021/09/16 06:29:29;;;;;;;10.27;6.70;;;16.70;99.90;;;;;;20802785;28;20040;-79
2021/09/16 06:39:30;;;;;;;9.27;6.50;;;16.90;99.90;;;;;;20803386;28;20064;-78
2021/09/16 06:49:36;;;;;;;11.47;6.67;;;17.00;99.90;;;;;;20795892;28;20389;-77
2021/09/16 06:59:37;;;;;;;17.73;8.98;;;17.20;99.90;;;;;;20796097;28;20108;-77
2021/09/16 07:09:38;;;;;;;14.10;8.50;;;17.10;99.90;;;;;;20798974;28;20057;-77
2021/09/16 07:19:39;;;;;;;14.97;8.67;;;17.20;99.90;;;;;;20828384;28;20034;-78
2021/09/16 07:29:40;;;;;;;15.13;8.50;;;17.40;99.90;;;;;;20835636;28;20052;-77
2021/09/16 07:39:40;;;;;;;13.60;8.37;;;17.60;99.90;;;;;;20835096;28;20068;-77
2021/09/16 07:49:41;;;;;;;12.87;7.77;;;18.00;99.90;;;;;;20823316;28;20028;-78
2021/09/16 07:59:42;;;;;;;12.47;6.37;;;18.20;99.90;;;;;;20837272;28;20033;-78
2021/09/16 08:09:43;;;;;;;17.80;7.63;;;18.50;99.90;;;;;;20834277;28;20021;-78
2021/09/16 08:19:44;;;;;;;17.93;7.10;;;18.50;99.90;;;;;;20835566;28;20021;-78
2021/09/16 08:29:44;;;;;;;7.20;3.83;;;19.60;99.90;;;;;;20832067;28;20052;-78
2021/09/16 08:39:45;;;;;;;5.60;2.83;;;20.90;99.90;;;;;;20830471;28;20076;-78
2021/09/16 08:49:46;;;;;;;7.40;3.30;;;21.20;99.90;;;;;;20768687;28;20125;-78
2021/09/16 08:59:48;;;;;;;6.10;2.20;;;20.70;99.90;;;;;;20760951;28;20045;-78
2021/09/16 09:09:49;;;;;;;6.13;1.63;;;20.60;99.90;;;;;;20748484;28;20289;-79
2021/09/16 09:19:51;;;;;;;4.60;2.07;;;20.90;99.90;;;;;;20765443;28;20021;-78
2021/09/16 09:30:11;;;;;;;3.90;2.17;;;20.90;99.90;;;;;;20746792;28;20037;-78
2021/09/16 09:40:11;;;;;;;6.22;2.30;;;21.90;99.90;;;;;;20751853;28;20069;-79
2021/09/16 09:50:21;;;;;;;5.10;2.23;;;21.70;99.90;;;;;;20748441;28;20037;-78
2021/09/16 10:00:24;;;;;;;7.07;2.28;;;20.90;99.90;;;;;;20764906;28;20037;-79
2021/09/16 10:10:32;;;;;;;5.03;2.50;;;20.70;99.90;;;;;;20813208;28;20034;-81
2021/09/16 10:20:33;;;;;;;4.80;2.05;;;20.50;99.90;;;;;;20812818;28;20034;-80
2021/09/16 10:30:39;;;;;;;7.38;2.60;;;20.30;99.90;;;;;;20802859;28;20030;-79
2021/09/16 10:40:40;;;;;;;6.60;2.60;;;20.20;99.90;;;;;;20779821;28;20030;-78
2021/09/16 10:50:46;;;;;;;5.90;1.70;;;20.90;99.90;;;;;;20750102;28;20519;-77
2021/09/16 11:00:47;;;;;;;3.60;1.92;;;22.40;99.90;;;;;;20798385;28;20500;-77
2021/09/16 11:10:51;;;;;;;3.17;1.67;;;23.60;99.90;;;;;;20760986;28;20029;-78
2021/09/16 11:21:01;;;;;;;5.72;2.33;;;21.90;99.90;;;;;;20761426;28;20061;-77
2021/09/16 11:31:02;;;;;;;5.88;2.60;;;20.70;99.90;;;;;;20792027;28;20026;-78
2021/09/16 11:41:04;;;;;;;5.37;2.70;;;20.50;99.90;;;;;;20769504;28;20041;-79
2021/09/16 11:51:05;;;;;;;7.30;4.53;;;20.10;99.90;;;;;;20773549;28;20123;-79
2021/09/16 12:01:15;;;;;;;4.45;2.63;;;20.80;99.90;;;;;;20784196;28;20037;-80
2021/09/16 12:11:24;;;;;;;5.65;2.17;;;21.30;99.90;;;;;;20804739;28;20042;-79
2021/09/16 12:21:30;;;;;;;5.05;1.77;;;22.40;99.90;;;;;;20811972;28;20026;-80
2021/09/16 12:31:33;;;;;;;5.32;1.85;;;23.00;99.90;;;;;;20777270;28;20064;-78
2021/09/16 12:41:38;;;;;;;3.13;1.67;;;23.10;99.90;;;;;;20756449;28;20065;-78
2021/09/16 12:51:39;;;;;;;4.25;1.63;;;22.60;99.90;;;;;;20751270;28;20042;-79
2021/09/16 13:01:40;;;;;;;1.77;1.33;;;23.30;99.90;;;;;;20763515;28;20045;-78
2021/09/16 13:11:40;;;;;;;2.87;1.63;;;22.90;99.90;;;;;;20786376;28;20124;-78
2021/09/16 13:21:41;;;;;;;5.80;1.90;;;22.40;99.90;;;;;;20779726;28;20042;-79
2021/09/16 13:31:45;;;;;;;4.20;2.40;;;22.00;99.90;;;;;;20784422;28;20036;-79
2021/09/16 13:41:46;;;;;;;3.92;1.73;;;22.80;99.90;;;;;;20780613;28;20030;-78
2021/09/16 13:51:47;;;;;;;3.22;1.25;;;23.40;99.90;;;;;;20775492;28;20088;-79
2021/09/16 14:01:49;;;;;;;2.58;1.35;;;23.50;99.90;;;;;;20768597;28;20046;-80
2021/09/16 14:11:50;;;;;;;1.90;1.40;;;23.90;99.90;;;;;;20767725;28;20038;-79
2021/09/16 14:21:51;;;;;;;2.53;1.63;;;23.20;99.90;;;;;;20764795;28;20092;-78
2021/09/16 14:31:52;;;;;;;5.07;1.87;;;22.40;99.90;;;;;;20761986;28;20084;-79
2021/09/16 14:41:53;;;;;;;3.27;1.60;;;21.70;99.90;;;;;;20774428;28;20029;-79
2021/09/16 14:51:53;;;;;;;2.80;1.97;;;21.60;99.90;;;;;;20841034;28;20029;-79
2021/09/16 15:01:54;;;;;;;9.30;2.43;;;21.70;99.90;;;;;;20834528;28;20034;-79
2021/09/16 15:11:55;;;;;;;6.40;2.73;;;21.50;99.90;;;;;;20821650;28;20042;-79
2021/09/16 15:21:56;;;;;;;5.60;2.47;;;21.00;99.90;;;;;;20778913;28;20331;-79
2021/09/16 15:31:57;;;;;;;3.73;2.73;;;20.70;99.90;;;;;;20790874;28;20100;-80
2021/09/16 15:41:58;;;;;;;2.43;2.03;;;21.30;99.90;;;;;;20793228;28;20040;-78
2021/09/16 15:51:59;;;;;;;4.53;2.30;;;22.30;99.90;;;;;;20786366;28;20029;-79
2021/09/16 16:02:00;;;;;;;;;;;21.70;99.90;;;;;;20789676;28;20501;-79
2021/09/16 16:12:01;;;;;;;3.10;1.80;;;21.80;99.90;;;;;;20785984;28;19917;-77
2021/09/16 16:22:02;;;;;;;2.80;2.00;;;21.80;99.90;;;;;;20783742;28;20088;-79
2021/09/16 16:32:03;;;;;;;4.07;2.60;;;21.80;99.90;;;;;;20747040;28;20041;-78
2021/09/16 16:42:04;;;;;;;4.10;2.95;;;21.20;99.90;;;;;;20810075;28;20040;-78
2021/09/16 16:52:05;;;;;;;3.35;2.40;;;21.10;99.90;;;;;;20826850;28;20025;-77
2021/09/16 17:02:06;;;;;;;4.28;2.55;;;21.00;99.90;;;;;;20824267;28;20030;-80
2021/09/16 17:12:07;;;;;;;4.30;2.57;;;20.70;99.90;;;;;;20811551;28;20083;-80
2021/09/16 17:22:08;;;;;;;4.18;3.00;;;20.70;99.90;;;;;;20771049;28;20034;-79
2021/09/16 17:32:09;;;;;;;4.50;2.57;;;20.30;99.90;;;;;;20800331;28;20071;-82
2021/09/16 17:42:10;;;;;;;5.63;3.17;;;19.90;99.90;;;;;;20822530;28;20135;-81
2021/09/16 17:52:11;;;;;;;5.80;3.30;;;19.30;99.90;;;;;;20828934;28;20514;-81
2021/09/16 18:02:14;;;;;;;4.97;3.30;;;19.10;99.90;;;;;;20825212;28;20029;-80
2021/09/16 18:12:14;;;;;;;9.20;3.20;;;18.80;99.90;;;;;;20829940;28;20075;-81
2021/09/16 18:22:15;;;;;;;7.77;2.87;;;18.60;99.90;;;;;;20757652;28;20061;-81
2021/09/16 18:32:18;;;;;;;5.80;3.50;;;18.20;99.90;;;;;;20757147;28;20482;-81
2021/09/16 18:42:19;;;;;;;7.40;3.58;;;17.80;99.90;;;;;;20821389;28;20095;-80
2021/09/16 18:52:20;;;;;;;6.45;3.80;;;17.80;99.90;;;;;;20836804;28;20037;-79
2021/09/16 19:02:21;;;;;;;11.00;3.73;;;17.80;99.90;;;;;;20837745;28;20043;-80
2021/09/16 19:12:22;;;;;;;7.20;3.73;;;18.00;99.90;;;;;;20838156;28;20029;-78
2021/09/16 19:22:25;;;;;;;7.35;3.88;;;17.90;99.90;;;;;;20835677;28;20026;-79
2021/09/16 19:32:27;;;;;;;8.73;4.37;;;17.60;99.90;;;;;;20822872;28;20038;-81
2021/09/16 19:42:28;;;;;;;8.02;4.30;;;17.20;99.90;;;;;;20798481;28;20125;-81
2021/09/16 19:52:29;;;;;;;11.60;4.80;;;17.00;99.90;;;;;;20784244;28;20029;-79
2021/09/16 20:02:30;;;;;;;7.30;4.77;;;17.00;99.90;;;;;;20827909;28;20037;-80
2021/09/16 20:12:39;;;;;;;9.13;5.20;;;16.70;99.90;;;;;;20819368;28;20079;-81
2021/09/16 20:22:40;;;;;;;8.27;4.93;;;16.60;99.90;;;;;;20819381;28;20038;-80
2021/09/16 20:32:41;;;;;;;10.00;5.60;;;16.60;99.90;;;;;;20818084;28;20021;-81
2021/09/16 20:42:43;;;;;;;9.37;6.07;;;16.40;99.90;;;;;;20803668;28;20057;-80
2021/09/16 20:52:43;;;;;;;9.47;6.97;;;16.10;99.90;;;;;;20767867;28;20113;-80
2021/09/16 21:02:44;;;;;;;12.17;6.13;;;16.20;99.90;;;;;;20756982;28;20038;-80
2021/09/16 21:12:50;;;;;;;12.00;6.70;;;16.20;99.90;;;;;;20765337;28;20030;-79
2021/09/16 21:22:51;;;;;;;11.50;6.97;;;16.40;99.90;;;;;;20766789;28;20030;-80
2021/09/16 21:32:52;;;;;;;11.10;6.73;;;16.40;99.90;;;;;;20769575;28;20065;-81
2021/09/16 21:42:55;;;;;;;12.20;6.23;;;16.40;99.90;;;;;;20772540;28;20452;-77
2021/09/16 21:52:56;;;;;;;9.07;5.75;;;16.40;99.90;;;;;;20771168;28;20065;-80
2021/09/16 22:02:57;;;;;;;7.10;4.73;;;16.50;99.90;;;;;;20756913;28;20091;-79
2021/09/16 22:12:57;;;;;;;6.97;4.70;;;16.50;99.90;;;;;;20773769;28;20041;-79
2021/09/16 22:22:58;;;;;;;7.90;4.70;;;16.40;99.90;;;;;;20770863;28;20034;-80
2021/09/16 22:32:59;;;;;;;10.90;5.17;;;16.40;99.90;;;;;;20778232;28;20092;-80
2021/09/16 22:43:00;;;;;;;9.10;5.27;;;16.40;99.90;;;;;;20767473;28;20045;-81
2021/09/16 22:53:01;;;;;;;6.80;4.80;;;16.30;99.90;;;;;;20765856;28;20034;-81
2021/09/16 23:03:02;;;;;;;8.53;5.60;;;16.20;99.90;;;;;;20782565;28;20053;-81
2021/09/16 23:13:03;;;;;;;7.57;5.00;;;16.10;99.90;;;;;;20782373;28;20081;-81
2021/09/16 23:23:04;;;;;;;7.93;4.53;;;16.20;99.90;;;;;;20775077;28;20496;-80
2021/09/16 23:33:05;;;;;;;8.77;4.80;;;16.10;99.90;;;;;;20790557;28;20034;-81
2021/09/16 23:43:06;;;;;;;6.70;4.90;;;16.20;99.90;;;;;;20780369;28;20033;-80
2021/09/16 23:53:06;;;;;;;7.77;5.20;;;16.00;99.90;;;;;;20774590;28;20046;-81
